Time,TemperatureF,DewpointF,PressureIn,WindDirection,WindDirectionDegrees,WindSpeedMPH,WindSpeedGustMPH,Humidity,HourlyPrecipIn,Conditions,Clouds,dailyrainin,SolarRadiationWatts/m^2,SoftwareType,DateUTC
2013-06-01 00:22:00,52.0,4.0,-100.00,ESE,106,3.0,5.0,14,0.00,,,0.00,0.000000,,2013-06-01 06:22:00,
2013-06-01 00:32:00,52.0,4.0,-100.00,ESE,106,3.0,5.0,14,0.00,,,0.00,0.000000,,2013-06-01 06:32:00,
2013-06-01 00:42:00,52.0,4.0,-100.00,ESE,106,3.0,5.0,14,0.00,,,0.00,0.000000,,2013-06-01 06:42:00,
2013-06-01 00:52:00,52.0,4.0,-100.00,ESE,106,3.0,5.0,14,0.00,,,0.00,0.000000,,2013-06-01 06:52:00,
2013-06-01 01:21:00,46.0,10.0,-100.00,ESE,102,5.0,9.0,23,0.00,,,0.00,0.000000,,2013-06-01 07:21:00,
2013-06-01 01:31:00,46.0,10.0,-100.00,ESE,102,5.0,9.0,23,0.00,,,0.00,0.000000,,2013-06-01 07:31:00,
2013-06-01 01:42:00,46.0,10.0,-100.00,ESE,102,5.0,9.0,23,0.00,,,0.00,0.000000,,2013-06-01 07:42:00,
2013-06-01 01:52:00,46.0,10.0,-100.00,ESE,102,5.0,9.0,23,0.00,,,0.00,0.000000,,2013-06-01 07:52:00,
2013-06-01 02:42:00,44.0,8.0,-100.00,ESE,122,4.0,10.0,22,0.00,,,0.00,0.000000,,2013-06-01 08:42:00,
2013-06-01 02:52:00,44.0,8.0,-100.00,ESE,122,4.0,10.0,22,0.00,,,0.00,0.000000,,2013-06-01 08:52:00,
2013-06-01 03:21:00,45.0,12.0,-100.00,East,98,4.0,9.0,26,0.00,,,0.00,0.000000,,2013-06-01 09:21:00,
2013-06-01 03:33:00,45.0,12.0,-100.00,East,98,4.0,9.0,26,0.00,,,0.00,0.000000,,2013-06-01 09:33:00,
2013-06-01 03:42:00,45.0,12.0,-100.00,East,98,4.0,9.0,26,0.00,,,0.00,0.000000,,2013-06-01 09:42:00,
2013-06-01 03:53:00,45.0,12.0,-100.00,East,98,4.0,9.0,26,0.00,,,0.00,0.000000,,2013-06-01 09:53:00,
2013-06-01 04:42:00,44.0,12.0,-100.00,ESE,121,4.0,7.0,27,0.00,,,0.00,0.000000,,2013-06-01 10:42:00,
2013-06-01 04:52:00,44.0,12.0,-100.00,ESE,121,4.0,7.0,27,0.00,,,0.00,0.000000,,2013-06-01 10:52:00,
2013-06-01 05:21:00,42.0,12.0,-100.00,ESE,105,3.0,6.0,29,0.00,,,0.00,0.000000,,2013-06-01 11:21:00,
2013-06-01 05:32:00,42.0,12.0,-100.00,ESE,105,3.0,6.0,29,0.00,,,0.00,0.000000,,2013-06-01 11:32:00,
2013-06-01 05:42:00,42.0,12.0,-100.00,ESE,105,3.0,6.0,29,0.00,,,0.00,0.000000,,2013-06-01 11:42:00,
2013-06-01 05:52:00,42.0,12.0,-100.00,ESE,105,3.0,6.0,29,0.00,,,0.00,0.000000,,2013-06-01 11:52:00,
2013-06-01 06:21:00,43.0,15.0,-100.00,ESE,102,4.0,9.0,32,0.00,,,-99.99,0.000000,,2013-06-01 12:21:00,
2013-06-01 06:32:00,43.0,15.0,-100.00,ESE,102,4.0,9.0,32,0.00,,,-99.99,0.000000,,2013-06-01 12:32:00,
2013-06-01 06:41:00,43.0,15.0,-100.00,ESE,102,4.0,9.0,32,0.00,,,-99.99,0.000000,,2013-06-01 12:41:00,
2013-06-01 06:52:00,43.0,15.0,-100.00,ESE,102,4.0,9.0,32,0.00,,,-99.99,0.000000,,2013-06-01 12:52:00,
2013-06-01 07:22:00,45.0,15.0,-100.00,SSE,157,4.0,8.0,29,0.00,,,0.00,95.000000,,2013-06-01 13:22:00,
2013-06-01 07:32:00,45.0,15.0,-100.00,SSE,157,4.0,8.0,29,0.00,,,0.00,95.000000,,2013-06-01 13:32:00,
2013-06-01 07:42:00,45.0,15.0,-100.00,SSE,157,4.0,8.0,29,0.00,,,0.00,95.000000,,2013-06-01 13:42:00,
2013-06-01 07:52:00,45.0,15.0,-100.00,SSE,157,4.0,8.0,29,0.00,,,0.00,95.000000,,2013-06-01 13:52:00,
2013-06-01 08:21:00,59.0,22.0,-100.00,ENE,60,3.0,7.0,24,0.00,,,0.00,343.000000,,2013-06-01 14:21:00,
2013-06-01 08:32:00,59.0,22.0,-100.00,ENE,60,3.0,7.0,24,0.00,,,0.00,343.000000,,2013-06-01 14:32:00,
2013-06-01 08:42:00,59.0,22.0,-100.00,ENE,60,3.0,7.0,24,0.00,,,0.00,343.000000,,2013-06-01 14:42:00,
2013-06-01 08:52:00,59.0,22.0,-100.00,ENE,60,3.0,7.0,24,0.00,,,0.00,343.000000,,2013-06-01 14:52:00,
2013-06-01 09:21:00,62.0,20.0,-100.00,NNE,32,4.0,9.0,20,0.00,,,0.00,603.000000,,2013-06-01 15:21:00,
2013-06-01 09:33:00,62.0,20.0,-100.00,NNE,32,4.0,9.0,20,0.00,,,0.00,603.000000,,2013-06-01 15:33:00,
2013-06-01 09:43:00,62.0,20.0,-100.00,NNE,32,4.0,9.0,20,0.00,,,0.00,603.000000,,2013-06-01 15:43:00,
2013-06-01 09:53:00,62.0,20.0,-100.00,NNE,32,4.0,9.0,20,0.00,,,0.00,603.000000,,2013-06-01 15:53:00,
2013-06-01 10:23:00,67.0,22.0,-100.00,NNE,13,4.0,12.0,18,0.00,,,0.00,847.000000,,2013-06-01 16:23:00,
2013-06-01 10:33:00,67.0,22.0,-100.00,NNE,13,4.0,12.0,18,0.00,,,0.00,847.000000,,2013-06-01 16:33:00,
2013-06-01 10:42:00,67.0,22.0,-100.00,NNE,13,4.0,12.0,18,0.00,,,0.00,847.000000,,2013-06-01 16:42:00,
2013-06-01 10:52:00,67.0,22.0,-100.00,NNE,13,4.0,12.0,18,0.00,,,0.00,847.000000,,2013-06-01 16:52:00,
2013-06-01 11:22:00,70.0,20.0,-100.00,North,359,4.0,12.0,15,0.00,,,0.00,1059.000000,,2013-06-01 17:22:00,
2013-06-01 11:32:00,70.0,20.0,-100.00,North,359,4.0,12.0,15,0.00,,,0.00,1059.000000,,2013-06-01 17:32:00,
2013-06-01 11:42:00,70.0,20.0,-100.00,North,359,4.0,12.0,15,0.00,,,0.00,1059.000000,,2013-06-01 17:42:00,
2013-06-01 11:52:00,70.0,20.0,-100.00,North,359,4.0,12.0,15,0.00,,,0.00,1059.000000,,2013-06-01 17:52:00,
2013-06-01 12:21:00,72.0,18.0,-100.00,WNW,291,5.0,14.0,13,0.00,,,0.00,1215.000000,,2013-06-01 18:21:00,
2013-06-01 12:32:00,72.0,18.0,-100.00,WNW,291,5.0,14.0,13,0.00,,,0.00,1215.000000,,2013-06-01 18:32:00,
2013-06-01 12:41:00,72.0,18.0,-100.00,WNW,291,5.0,14.0,13,0.00,,,0.00,1215.000000,,2013-06-01 18:41:00,
2013-06-01 12:51:00,72.0,18.0,-100.00,WNW,291,5.0,14.0,13,0.00,,,0.00,1215.000000,,2013-06-01 18:51:00,
2013-06-01 13:21:00,73.0,15.0,-100.00,South,176,4.0,13.0,11,0.00,,,0.00,1309.000000,,2013-06-01 19:21:00,
2013-06-01 13:32:00,73.0,15.0,-100.00,South,176,4.0,13.0,11,0.00,,,0.00,1309.000000,,2013-06-01 19:32:00,
2013-06-01 13:41:00,73.0,15.0,-100.00,South,176,4.0,13.0,11,0.00,,,0.00,1309.000000,,2013-06-01 19:41:00,
2013-06-01 13:52:00,73.0,15.0,-100.00,South,176,4.0,13.0,11,0.00,,,0.00,1309.000000,,2013-06-01 19:52:00,
2013-06-01 14:12:00,75.0,12.0,-100.00,North,8,6.0,14.0,9,0.00,,,0.00,1327.000000,,2013-06-01 20:12:00,
2013-06-01 14:21:00,75.0,12.0,-100.00,North,8,6.0,14.0,9,0.00,,,0.00,1327.000000,,2013-06-01 20:21:00,
2013-06-01 14:32:00,75.0,12.0,-100.00,North,8,6.0,14.0,9,0.00,,,0.00,1327.000000,,2013-06-01 20:32:00,
2013-06-01 14:41:00,75.0,12.0,-100.00,North,8,6.0,14.0,9,0.00,,,0.00,1327.000000,,2013-06-01 20:41:00,
2013-06-01 14:51:00,75.0,12.0,-100.00,North,8,6.0,14.0,9,0.00,,,0.00,1327.000000,,2013-06-01 20:51:00,
2013-06-01 15:21:00,77.0,11.0,-100.00,SSW,205,4.0,11.0,8,0.00,,,0.00,1279.000000,,2013-06-01 21:21:00,
2013-06-01 15:33:00,77.0,11.0,-100.00,SSW,205,4.0,11.0,8,0.00,,,0.00,1279.000000,,2013-06-01 21:33:00,
2013-06-01 15:42:00,77.0,11.0,-100.00,SSW,205,4.0,11.0,8,0.00,,,0.00,1279.000000,,2013-06-01 21:42:00,
2013-06-01 15:53:00,77.0,11.0,-100.00,SSW,205,4.0,11.0,8,0.00,,,0.00,1279.000000,,2013-06-01 21:53:00,
2013-06-01 16:23:00,80.0,10.0,-100.00,NW,312,3.0,14.0,7,0.00,,,0.00,1158.000000,,2013-06-01 22:23:00,
2013-06-01 16:33:00,80.0,10.0,-100.00,NW,312,3.0,14.0,7,0.00,,,0.00,1158.000000,,2013-06-01 22:33:00,
2013-06-01 16:42:00,80.0,10.0,-100.00,NW,312,3.0,14.0,7,0.00,,,0.00,1158.000000,,2013-06-01 22:42:00,
2013-06-01 16:53:00,80.0,10.0,-100.00,NW,312,3.0,14.0,7,0.00,,,0.00,1158.000000,,2013-06-01 22:53:00,
2013-06-01 17:21:00,82.0,8.0,-100.00,NW,326,5.0,11.0,6,0.00,,,0.00,977.000000,,2013-06-01 23:21:00,
2013-06-01 17:32:00,82.0,8.0,-100.00,NW,326,5.0,11.0,6,0.00,,,0.00,977.000000,,2013-06-01 23:32:00,
2013-06-01 17:42:00,82.0,8.0,-100.00,NW,326,5.0,11.0,6,0.00,,,0.00,977.000000,,2013-06-01 23:42:00,
2013-06-01 17:52:00,82.0,8.0,-100.00,NW,326,5.0,11.0,6,0.00,,,0.00,977.000000,,2013-06-01 23:52:00,
2013-06-01 18:21:00,82.0,8.0,-100.00,WNW,284,5.0,11.0,6,0.00,,,0.00,593.000000,,2013-06-02 00:21:00,
2013-06-01 18:32:00,82.0,8.0,-100.00,WNW,284,5.0,11.0,6,0.00,,,0.00,593.000000,,2013-06-02 00:32:00,
2013-06-01 18:41:00,82.0,8.0,-100.00,WNW,284,5.0,11.0,6,0.00,,,0.00,593.000000,,2013-06-02 00:41:00,
2013-06-01 18:51:00,82.0,8.0,-100.00,WNW,284,5.0,11.0,6,0.00,,,0.00,593.000000,,2013-06-02 00:51:00,
2013-06-01 19:21:00,81.0,8.0,-100.00,WNW,284,6.0,11.0,6,0.00,,,0.00,50.000000,,2013-06-02 01:21:00,
2013-06-01 19:32:00,81.0,8.0,-100.00,WNW,284,6.0,11.0,6,0.00,,,0.00,50.000000,,2013-06-02 01:32:00,
2013-06-01 19:41:00,81.0,8.0,-100.00,WNW,284,6.0,11.0,6,0.00,,,0.00,50.000000,,2013-06-02 01:41:00,
2013-06-01 19:52:00,81.0,8.0,-100.00,WNW,284,6.0,11.0,6,0.00,,,0.00,50.000000,,2013-06-02 01:52:00,
2013-06-01 20:21:00,77.0,11.0,-100.00,NW,319,5.0,11.0,8,0.00,,,0.00,62.000000,,2013-06-02 02:21:00,
2013-06-01 20:32:00,77.0,11.0,-100.00,NW,319,5.0,11.0,8,0.00,,,0.00,62.000000,,2013-06-02 02:32:00,
2013-06-01 20:41:00,77.0,11.0,-100.00,NW,319,5.0,11.0,8,0.00,,,0.00,62.000000,,2013-06-02 02:41:00,
2013-06-01 20:51:00,77.0,11.0,-100.00,NW,319,5.0,11.0,8,0.00,,,0.00,62.000000,,2013-06-02 02:51:00,
2013-06-01 21:21:00,67.0,16.0,-100.00,North,2,5.0,8.0,14,0.00,,,0.00,14.000000,,2013-06-02 03:21:00,
2013-06-01 21:33:00,67.0,16.0,-100.00,North,2,5.0,8.0,14,0.00,,,0.00,14.000000,,2013-06-02 03:33:00,
2013-06-01 21:43:00,67.0,16.0,-100.00,North,2,5.0,8.0,14,0.00,,,0.00,14.000000,,2013-06-02 03:43:00,
2013-06-01 21:52:00,67.0,16.0,-100.00,North,2,5.0,8.0,14,0.00,,,0.00,14.000000,,2013-06-02 03:52:00,
2013-06-01 22:23:00,64.0,18.0,-100.00,NE,35,3.0,7.0,17,0.00,,,0.00,0.000000,,2013-06-02 04:23:00,
2013-06-01 22:33:00,64.0,18.0,-100.00,NE,35,3.0,7.0,17,0.00,,,0.00,0.000000,,2013-06-02 04:33:00,
2013-06-01 22:42:00,64.0,18.0,-100.00,NE,35,3.0,7.0,17,0.00,,,0.00,0.000000,,2013-06-02 04:42:00,
2013-06-01 22:52:00,64.0,18.0,-100.00,NE,35,3.0,7.0,17,0.00,,,0.00,0.000000,,2013-06-02 04:52:00,
2013-06-01 23:22:00,61.0,18.0,-100.00,East,88,6.0,10.0,19,0.00,,,0.00,0.000000,,2013-06-02 05:22:00,
2013-06-01 23:32:00,61.0,18.0,-100.00,East,88,6.0,10.0,19,0.00,,,0.00,0.000000,,2013-06-02 05:32:00,
2013-06-01 23:42:00,61.0,18.0,-100.00,East,88,6.0,10.0,19,0.00,,,0.00,0.000000,,2013-06-02 05:42:00,
2013-06-01 23:52:00,61.0,18.0,-100.00,East,88,6.0,10.0,19,0.00,,,0.00,0.000000,,2013-06-02 05:52:00,